Time;durP1;ratioP1;P1;durP2;ratioP2;P2;SDS_P1;SDS_P2;PMS_P1;PMS_P2;Temp;Humidity;BMP_temperature;BMP_pressure;BME280_temperature;BME280_humidity;BME280_pressure;Samples;Min_cycle;Max_cycle;Signal;HPM_P1;HPM_P2
2021/03/02 00:00:27;;;;;;;25.50;16.67;;;17.80;52.50;;;;;;5110377;28;20070;-78
2021/03/02 00:02:53;;;;;;;26.27;18.30;;;17.70;52.40;;;;;;5109794;28;20051;-78
2021/03/02 00:05:18;;;;;;;26.83;19.15;;;17.70;52.40;;;;;;5110543;28;20040;-78
2021/03/02 00:07:44;;;;;;;24.30;17.67;;;17.70;52.40;;;;;;5111121;28;20383;-77
2021/03/02 00:10:12;;;;;;;24.52;18.05;;;17.70;52.50;;;;;;5112796;28;20108;-78
2021/03/02 00:12:40;;;;;;;26.52;17.20;;;17.60;52.50;;;;;;5114770;27;20568;-77
2021/03/02 00:15:07;;;;;;;23.45;18.23;;;17.60;52.40;;;;;;5115223;28;20013;-76
2021/03/02 00:17:50;;;;;;;24.40;17.48;;;17.60;52.40;;;;;;5114578;28;20407;-77
2021/03/02 00:20:25;;;;;;;26.48;17.33;;;17.60;52.30;;;;;;5114677;28;20024;-78
2021/03/02 00:23:05;;;;;;;22.90;18.00;;;17.50;52.30;;;;;;5114979;28;20085;-78
2021/03/02 00:25:33;;;;;;;25.02;17.77;;;17.50;52.30;;;;;;5114486;28;20027;-78
2021/03/02 00:28:05;;;;;;;25.20;16.95;;;17.50;52.30;;;;;;5114462;28;20024;-78
2021/03/02 00:30:33;;;;;;;25.05;17.85;;;17.50;52.20;;;;;;5114440;28;20031;-78
2021/03/02 00:33:00;;;;;;;22.80;17.85;;;17.40;52.20;;;;;;5114676;28;20094;-79
2021/03/02 00:35:26;;;;;;;25.38;17.27;;;17.40;52.30;;;;;;5114318;28;20517;-78
2021/03/02 00:37:52;;;;;;;23.55;17.48;;;17.40;52.30;;;;;;5147753;27;20019;-78
2021/03/02 00:40:18;;;;;;;24.52;18.20;;;17.40;52.30;;;;;;5114075;28;20028;-79
2021/03/02 00:42:43;;;;;;;22.00;16.90;;;17.30;52.30;;;;;;5114347;28;20028;-78
2021/03/02 00:45:10;;;;;;;24.98;17.63;;;17.30;52.20;;;;;;5113265;28;20035;-78
2021/03/02 00:47:36;;;;;;;27.40;18.17;;;17.30;52.30;;;;;;5114748;27;20027;-76
2021/03/02 00:50:04;;;;;;;21.77;16.00;;;17.30;52.40;;;;;;5114187;28;20429;-80
2021/03/02 00:52:29;;;;;;;25.70;17.33;;;17.20;52.30;;;;;;5114065;28;20027;-80
2021/03/02 00:54:55;;;;;;;25.08;18.02;;;17.20;52.30;;;;;;5113689;28;20376;-79
2021/03/02 00:57:20;;;;;;;25.55;17.95;;;17.20;52.30;;;;;;5113960;28;20020;-79
2021/03/02 00:59:46;;;;;;;23.20;16.50;;;17.20;52.40;;;;;;5113597;28;20560;-78
2021/03/02 01:02:12;;;;;;;24.08;16.80;;;17.20;52.20;;;;;;5113713;28;20020;-78
2021/03/02 01:04:37;;;;;;;25.88;17.73;;;17.20;52.30;;;;;;5114211;28;20115;-78
2021/03/02 01:07:05;;;;;;;26.67;18.65;;;17.10;52.20;;;;;;5113257;28;20073;-78
2021/03/02 01:09:31;;;;;;;23.95;17.77;;;17.10;52.20;;;;;;5112992;28;20031;-78
2021/03/02 01:11:57;;;;;;;23.65;16.70;;;17.10;52.30;;;;;;5113852;28;20026;-78
2021/03/02 01:14:22;;;;;;;23.75;17.05;;;17.10;52.80;;;;;;5113528;28;20024;-78
2021/03/02 01:16:48;;;;;;;22.88;16.00;;;17.10;52.10;;;;;;5113782;28;20050;-78
2021/03/02 01:19:14;;;;;;;23.33;17.13;;;17.10;52.10;;;;;;5113469;28;20027;-78
2021/03/02 01:21:39;;;;;;;23.50;16.17;;;17.00;52.10;;;;;;5112870;28;20034;-77
2021/03/02 01:24:05;;;;;;;26.17;18.10;;;17.00;52.00;;;;;;5113804;28;20040;-78
2021/03/02 01:26:31;;;;;;;24.17;17.90;;;17.00;52.10;;;;;;5113354;28;20023;-77
2021/03/02 01:28:57;;;;;;;21.92;16.55;;;17.00;52.00;;;;;;5112985;28;20035;-77
2021/03/02 01:31:22;;;;;;;26.42;16.88;;;16.90;51.90;;;;;;5113168;28;20027;-77
2021/03/02 01:33:48;;;;;;;25.85;17.73;;;16.90;51.90;;;;;;5113412;28;20016;-78
2021/03/02 01:36:14;;;;;;;23.02;16.63;;;16.90;51.90;;;;;;5112922;28;20036;-78
2021/03/02 01:38:39;;;;;;;26.63;18.50;;;16.90;52.00;;;;;;5113501;28;20023;-78
2021/03/02 01:41:05;;;;;;;24.63;17.77;;;16.90;52.10;;;;;;5113671;28;20030;-78
2021/03/02 01:43:31;;;;;;;24.77;17.33;;;16.90;52.10;;;;;;5112952;28;20041;-78
2021/03/02 01:45:56;;;;;;;25.00;17.90;;;16.90;51.90;;;;;;5111908;28;20039;-79
2021/03/02 01:48:22;;;;;;;23.25;17.50;;;16.90;52.00;;;;;;5113024;28;20075;-78
2021/03/02 01:50:48;;;;;;;23.17;16.15;;;16.80;51.90;;;;;;5112937;28;20036;-78
2021/03/02 01:53:14;;;;;;;24.13;17.65;;;16.80;51.90;;;;;;5112815;28;20027;-79
2021/03/02 01:55:39;;;;;;;25.10;17.67;;;16.80;51.80;;;;;;5112963;28;20038;-79
2021/03/02 01:58:05;;;;;;;22.65;15.82;;;16.80;51.90;;;;;;5113029;28;20034;-79
2021/03/02 02:00:33;;;;;;;27.98;18.30;;;16.80;51.90;;;;;;5112721;28;20027;-79
2021/03/02 02:03:24;;;;;;;23.95;16.77;;;16.80;52.00;;;;;;5112842;28;20027;-81
2021/03/02 02:06:00;;;;;;;24.38;17.55;;;16.80;51.90;;;;;;5112726;28;20503;-80
2021/03/02 02:08:55;;;;;;;21.73;16.75;;;16.70;51.90;;;;;;5112390;28;20071;-80
2021/03/02 02:11:41;;;;;;;23.33;17.20;;;16.70;51.80;;;;;;5090145;28;20369;-80
2021/03/02 02:14:12;;;;;;;24.02;16.98;;;16.70;51.90;;;;;;5112910;28;20067;-80
2021/03/02 02:16:42;;;;;;;23.67;16.48;;;16.70;51.80;;;;;;5112972;28;20120;-81
2021/03/02 02:19:20;;;;;;;22.40;16.80;;;16.60;51.80;;;;;;5113007;28;20031;-81
2021/03/02 02:22:01;;;;;;;24.17;17.83;;;16.60;51.90;;;;;;5111381;28;20365;-80
2021/03/02 02:24:27;;;;;;;23.33;17.20;;;16.60;52.00;;;;;;5112182;28;20035;-81
2021/03/02 02:26:56;;;;;;;22.13;15.57;;;16.60;51.90;;;;;;5111024;28;20016;-81
2021/03/02 02:29:30;;;;;;;21.00;16.48;;;16.60;51.80;;;;;;5111449;28;20028;-80
2021/03/02 02:31:59;;;;;;;23.42;16.85;;;16.50;51.80;;;;;;5111747;28;20028;-81
2021/03/02 02:34:27;;;;;;;25.13;17.58;;;16.50;51.80;;;;;;5111605;28;20027;-80
2021/03/02 02:36:54;;;;;;;22.77;16.70;;;16.50;51.90;;;;;;5111483;28;20024;-80
2021/03/02 02:39:21;;;;;;;20.42;15.25;;;16.50;51.70;;;;;;5111960;28;20032;-81
2021/03/02 02:41:48;;;;;;;21.58;15.45;;;16.40;51.50;;;;;;5112193;28;20022;-81
2021/03/02 02:44:16;;;;;;;24.15;15.90;;;16.40;51.50;;;;;;5111807;28;20118;-81
2021/03/02 02:46:43;;;;;;;20.20;15.23;;;16.40;51.50;;;;;;5112139;28;20030;-80
2021/03/02 02:49:11;;;;;;;25.30;16.73;;;16.40;51.70;;;;;;5112340;28;20093;-80
2021/03/02 02:51:38;;;;;;;22.35;15.32;;;16.40;51.60;;;;;;5112074;28;20023;-80
2021/03/02 02:54:06;;;;;;;24.38;15.75;;;16.40;51.60;;;;;;5111600;28;20020;-80
2021/03/02 02:56:34;;;;;;;22.85;15.88;;;16.40;51.40;;;;;;5110204;28;20023;-80
2021/03/02 02:59:08;;;;;;;22.35;16.13;;;16.40;51.40;;;;;;5109893;28;20104;-80
2021/03/02 03:01:40;;;;;;;21.90;15.75;;;16.40;51.50;;;;;;5109360;28;20051;-81
2021/03/02 03:04:10;;;;;;;22.02;15.80;;;16.40;51.40;;;;;;5110664;28;20032;-80
2021/03/02 03:06:40;;;;;;;22.65;16.88;;;16.30;51.50;;;;;;5145151;27;20023;-80
2021/03/02 03:09:06;;;;;;;22.10;15.40;;;16.30;51.60;;;;;;5144865;27;20491;-80
2021/03/02 03:11:46;;;;;;;21.73;16.25;;;16.30;51.50;;;;;;5111486;28;20016;-80
2021/03/02 03:14:14;;;;;;;21.23;15.32;;;16.30;51.40;;;;;;5111433;28;20483;-79
2021/03/02 03:16:43;;;;;;;24.60;16.55;;;16.30;51.50;;;;;;5110292;28;20023;-80
2021/03/02 03:19:17;;;;;;;22.05;15.75;;;16.30;51.50;;;;;;5111965;28;20023;-80
2021/03/02 03:21:44;;;;;;;21.33;15.73;;;16.20;51.40;;;;;;5111607;28;20028;-80
2021/03/02 03:24:10;;;;;;;21.52;15.70;;;16.20;51.40;;;;;;5111909;28;20552;-80
2021/03/02 03:26:37;;;;;;;18.50;13.80;;;16.20;51.40;;;;;;5111830;28;20077;-79
2021/03/02 03:29:03;;;;;;;19.50;14.73;;;16.20;51.30;;;;;;5110748;28;20032;-80
2021/03/02 03:31:29;;;;;;;20.08;15.00;;;16.20;51.30;;;;;;5110533;28;20560;-79
2021/03/02 03:33:56;;;;;;;19.83;14.95;;;16.10;52.00;;;;;;5111499;28;20024;-79
2021/03/02 03:36:24;;;;;;;20.92;14.38;;;16.10;51.40;;;;;;5111224;28;20488;-80
2021/03/02 03:38:49;;;;;;;21.35;15.10;;;16.10;51.40;;;;;;5111550;28;20016;-80
2021/03/02 03:41:15;;;;;;;22.73;15.70;;;16.10;51.40;;;;;;5111197;28;20391;-79
2021/03/02 03:43:41;;;;;;;18.77;14.20;;;16.10;51.40;;;;;;5111755;28;20020;-79
2021/03/02 03:46:07;;;;;;;20.67;13.98;;;16.10;51.30;;;;;;5115781;28;20024;-80
2021/03/02 03:48:33;;;;;;;20.52;14.00;;;16.10;51.30;;;;;;5115198;28;20024;-79
2021/03/02 03:50:59;;;;;;;18.70;14.43;;;16.10;51.40;;;;;;5115306;28;20039;-80
2021/03/02 03:53:26;;;;;;;18.65;14.55;;;16.10;51.30;;;;;;5115111;27;20019;-80
2021/03/02 03:55:53;;;;;;;19.90;14.52;;;16.00;51.30;;;;;;5115514;28;20015;-80
2021/03/02 03:58:23;;;;;;;21.65;14.60;;;16.00;51.30;;;;;;5114680;28;20141;-79
2021/03/02 04:00:52;;;;;;;20.13;14.60;;;16.00;51.30;;;;;;5114028;28;20035;-80
2021/03/02 04:03:23;;;;;;;19.30;14.35;;;16.00;51.20;;;;;;5113605;28;20028;-79
2021/03/02 04:05:50;;;;;;;20.15;14.85;;;16.00;51.30;;;;;;5115115;28;20027;-80
2021/03/02 04:08:16;;;;;;;19.67;13.57;;;16.00;51.30;;;;;;5114380;28;20063;-79
2021/03/02 04:10:43;;;;;;;19.67;14.55;;;16.00;51.20;;;;;;5114962;28;20019;-79
2021/03/02 04:13:11;;;;;;;19.08;13.45;;;16.00;51.30;;;;;;5115310;28;20035;-80
2021/03/02 04:15:37;;;;;;;19.85;13.90;;;15.90;51.30;;;;;;5115521;28;20374;-80
2021/03/02 04:18:08;;;;;;;17.88;13.38;;;15.90;51.40;;;;;;5114898;28;20364;-80
2021/03/02 04:20:34;;;;;;;18.30;13.07;;;15.90;51.30;;;;;;5114713;28;20506;-79
2021/03/02 04:22:59;;;;;;;21.52;14.10;;;16.00;51.40;;;;;;5114840;28;20031;-79
2021/03/02 04:25:25;;;;;;;19.80;13.60;;;15.90;51.30;;;;;;5114344;28;20417;-80
2021/03/02 04:27:50;;;;;;;17.52;13.05;;;15.90;51.40;;;;;;5114437;27;20039;-80
2021/03/02 04:30:17;;;;;;;17.08;13.00;;;15.90;51.40;;;;;;5114084;28;20110;-78
2021/03/02 04:32:42;;;;;;;19.65;13.65;;;15.90;52.00;;;;;;5114679;28;20043;-79
2021/03/02 04:35:08;;;;;;;17.13;12.45;;;15.90;51.40;;;;;;5114961;28;20019;-79
2021/03/02 04:37:35;;;;;;;19.75;13.52;;;15.80;51.30;;;;;;5113318;28;20027;-79
2021/03/02 04:40:01;;;;;;;17.67;12.75;;;15.80;51.40;;;;;;5114052;28;20028;-79
2021/03/02 04:42:27;;;;;;;19.77;13.07;;;15.80;51.30;;;;;;5114253;28;20035;-79
2021/03/02 04:44:53;;;;;;;17.85;13.90;;;15.80;51.40;;;;;;5114406;28;20063;-79
2021/03/02 04:47:18;;;;;;;17.90;13.63;;;15.80;51.30;;;;;;5114045;28;20027;-79
2021/03/02 04:49:44;;;;;;;19.05;13.48;;;15.80;51.50;;;;;;5114295;28;20051;-79
2021/03/02 04:52:10;;;;;;;19.40;13.70;;;15.80;51.40;;;;;;5114426;28;20055;-79
2021/03/02 04:54:35;;;;;;;18.00;13.02;;;15.80;51.30;;;;;;5114357;28;20045;-79
2021/03/02 04:57:01;;;;;;;18.75;13.77;;;15.70;51.40;;;;;;5113044;28;20059;-79
2021/03/02 04:59:26;;;;;;;20.10;12.88;;;15.70;51.30;;;;;;5113353;28;20027;-79
2021/03/02 05:01:52;;;;;;;18.65;13.45;;;15.70;51.40;;;;;;5113713;28;20031;-79
2021/03/02 05:04:18;;;;;;;17.77;13.18;;;15.70;51.40;;;;;;5113726;28;20028;-78
2021/03/02 05:06:43;;;;;;;18.02;12.32;;;15.70;51.30;;;;;;5113972;28;20106;-80
2021/03/02 05:09:09;;;;;;;17.42;13.23;;;15.70;51.40;;;;;;5113695;28;20027;-79
2021/03/02 05:11:34;;;;;;;18.40;13.60;;;15.70;51.40;;;;;;5112499;28;20027;-80
2021/03/02 05:14:00;;;;;;;18.30;13.25;;;15.70;51.30;;;;;;5112487;28;20034;-79
2021/03/02 05:16:25;;;;;;;18.42;13.30;;;15.70;51.30;;;;;;5113631;28;20455;-79
2021/03/02 05:18:51;;;;;;;21.25;13.48;;;15.70;51.30;;;;;;5113779;28;20479;-80
2021/03/02 05:21:17;;;;;;;15.30;11.45;;;15.70;51.30;;;;;;5113482;28;20055;-79
2021/03/02 05:23:42;;;;;;;16.88;12.95;;;15.60;51.20;;;;;;5113605;28;20061;-79
2021/03/02 05:26:08;;;;;;;19.45;12.95;;;15.60;51.30;;;;;;5113966;28;20048;-81
2021/03/02 05:28:33;;;;;;;16.83;12.68;;;15.60;51.20;;;;;;5112898;28;20083;-80
2021/03/02 05:30:59;;;;;;;15.50;11.95;;;15.60;51.40;;;;;;5112853;28;20453;-80
2021/03/02 05:33:25;;;;;;;18.02;12.88;;;15.60;51.80;;;;;;5113154;28;20015;-80
2021/03/02 05:35:50;;;;;;;16.23;11.98;;;15.60;51.30;;;;;;5112237;28;20373;-79
2021/03/02 05:38:17;;;;;;;20.63;12.93;;;15.60;51.40;;;;;;5113084;28;20548;-80
2021/03/02 05:40:43;;;;;;;16.85;12.00;;;15.60;51.40;;;;;;5113327;28;20047;-80
2021/03/02 05:43:09;;;;;;;15.90;12.18;;;15.60;51.40;;;;;;5113594;28;20081;-80
2021/03/02 05:45:36;;;;;;;15.90;11.63;;;15.60;51.30;;;;;;5113531;28;20036;-80
2021/03/02 05:48:06;;;;;;;16.00;12.63;;;15.60;51.30;;;;;;5113204;28;20024;-79
2021/03/02 05:50:32;;;;;;;16.35;11.38;;;15.50;51.20;;;;;;5112661;27;20027;-79
2021/03/02 05:53:01;;;;;;;18.67;11.75;;;15.50;51.10;;;;;;5113096;28;20027;-80
2021/03/02 05:55:27;;;;;;;16.83;11.52;;;15.50;51.20;;;;;;5112919;28;20047;-80
2021/03/02 05:57:53;;;;;;;15.93;11.82;;;15.50;51.20;;;;;;5111141;28;20080;-81
2021/03/02 06:00:19;;;;;;;14.85;11.35;;;15.50;51.20;;;;;;5111335;28;20054;-79
2021/03/02 06:02:45;;;;;;;15.13;11.40;;;15.50;51.10;;;;;;5112510;28;20032;-79
2021/03/02 06:05:13;;;;;;;15.88;11.82;;;15.50;51.20;;;;;;5112500;28;20043;-79
2021/03/02 06:07:38;;;;;;;17.63;11.98;;;15.50;51.10;;;;;;5112340;28;20030;-79
2021/03/02 06:10:04;;;;;;;14.77;10.90;;;15.50;51.10;;;;;;5112748;28;20031;-80
2021/03/02 06:12:30;;;;;;;16.17;12.20;;;15.50;51.10;;;;;;5112423;28;20028;-80
2021/03/02 06:15:06;;;;;;;15.95;12.43;;;15.50;51.20;;;;;;5112668;28;20035;-80
2021/03/02 06:17:32;;;;;;;18.48;12.20;;;15.50;51.10;;;;;;5112475;28;20016;-80
2021/03/02 06:19:57;;;;;;;15.57;11.25;;;15.50;51.20;;;;;;5111489;28;20038;-82
2021/03/02 06:22:36;;;;;;;17.42;11.65;;;15.50;51.20;;;;;;5111521;28;20023;-78
2021/03/02 06:25:04;;;;;;;18.98;11.45;;;15.50;51.30;;;;;;5104554;28;20389;-78
2021/03/02 06:27:33;;;;;;;18.80;12.82;;;15.50;51.40;;;;;;5102615;28;20479;-79
2021/03/02 06:30:15;;;;;;;19.40;12.10;;;15.50;51.60;;;;;;5106103;28;20462;-78
2021/03/02 06:32:47;;;;;;;15.30;10.98;;;15.50;51.60;;;;;;5109732;28;20031;-78
2021/03/02 06:35:38;;;;;;;16.67;11.05;;;15.50;51.80;;;;;;5110510;28;20031;-80
2021/03/02 06:38:05;;;;;;;14.52;10.32;;;15.50;51.90;;;;;;5110887;28;20035;-80
2021/03/02 06:40:39;;;;;;;16.52;10.18;;;15.60;51.90;;;;;;5111840;28;20023;-80
2021/03/02 06:43:05;;;;;;;15.95;9.73;;;15.70;51.90;;;;;;5112355;28;20540;-80
2021/03/02 06:45:31;;;;;;;17.73;9.88;;;15.70;51.90;;;;;;5111778;28;20476;-80
2021/03/02 06:48:03;;;;;;;15.45;9.95;;;15.80;52.00;;;;;;5110849;28;20031;-79
2021/03/02 06:50:29;;;;;;;15.65;10.43;;;15.90;52.00;;;;;;5109415;28;20088;-78
2021/03/02 06:52:54;;;;;;;14.40;10.23;;;16.00;52.60;;;;;;5107354;28;20031;-78
2021/03/02 06:55:26;;;;;;;12.93;9.18;;;16.10;52.20;;;;;;5098851;28;20395;-78
2021/03/02 06:58:17;;;;;;;15.02;10.05;;;16.20;52.10;;;;;;5098451;28;20047;-78
2021/03/02 07:00:47;;;;;;;13.77;10.07;;;16.30;52.00;;;;;;5107058;28;20024;-75
2021/03/02 07:03:42;;;;;;;19.83;10.10;;;16.30;51.90;;;;;;5091260;28;20035;-76
2021/03/02 07:06:08;;;;;;;14.45;9.23;;;16.40;52.10;;;;;;5115951;27;20459;-75
2021/03/02 07:08:36;;;;;;;17.23;9.73;;;16.50;52.30;;;;;;5091173;28;20066;-75
2021/03/02 07:11:03;;;;;;;15.60;10.10;;;16.60;52.40;;;;;;5091517;28;20073;-76
2021/03/02 07:13:32;;;;;;;15.30;9.80;;;16.70;52.50;;;;;;5091670;28;20013;-76
2021/03/02 07:15:59;;;;;;;21.95;9.90;;;16.80;52.70;;;;;;5091515;28;20062;-78
2021/03/02 07:18:28;;;;;;;20.98;10.18;;;16.90;52.90;;;;;;5090563;28;20032;-77
2021/03/02 07:21:00;;;;;;;16.50;9.35;;;17.00;53.20;;;;;;5093306;28;20028;-77
2021/03/02 07:23:29;;;;;;;18.58;9.60;;;17.00;52.90;;;;;;5110959;28;20063;-76
2021/03/02 07:25:56;;;;;;;14.98;10.50;;;17.10;52.50;;;;;;5111168;28;20047;-76
2021/03/02 07:28:27;;;;;;;19.77;11.20;;;17.20;51.90;;;;;;5110971;28;20095;-77
2021/03/02 07:30:54;;;;;;;17.17;10.63;;;17.20;51.80;;;;;;5111558;28;20038;-78
2021/03/02 07:33:20;;;;;;;17.23;11.95;;;17.40;52.70;;;;;;5111295;28;20080;-80
2021/03/02 07:35:46;;;;;;;19.38;11.10;;;17.40;52.00;;;;;;5111489;28;20031;-76
2021/03/02 07:38:14;;;;;;;19.38;11.77;;;17.50;51.90;;;;;;5111112;28;20077;-75
2021/03/02 07:40:48;;;;;;;16.48;11.15;;;17.50;51.30;;;;;;5105977;28;20106;-77
2021/03/02 07:43:27;;;;;;;18.52;11.40;;;17.50;51.20;;;;;;5110969;28;20024;-78
2021/03/02 07:45:54;;;;;;;27.75;12.73;;;17.60;50.90;;;;;;5111325;28;20031;-81
2021/03/02 07:48:37;;;;;;;20.77;12.15;;;17.60;51.30;;;;;;5111226;28;20015;-78
2021/03/02 07:51:17;;;;;;;17.88;11.70;;;17.70;51.00;;;;;;5110815;28;20059;-78
2021/03/02 07:53:44;;;;;;;19.70;11.32;;;17.80;50.70;;;;;;5111069;28;20031;-79
2021/03/02 07:56:16;;;;;;;25.80;11.55;;;17.80;51.70;;;;;;5111133;28;20031;-77
2021/03/02 07:59:02;;;;;;;19.08;10.80;;;17.90;51.50;;;;;;5111457;28;20390;-82
2021/03/02 08:01:27;;;;;;;15.30;10.73;;;18.00;51.40;;;;;;5110297;28;20494;-80
2021/03/02 08:04:13;;;;;;;18.00;11.30;;;18.00;50.80;;;;;;5110693;28;20032;-81
2021/03/02 08:06:38;;;;;;;18.40;10.88;;;18.10;51.00;;;;;;5111443;28;20050;-80
2021/03/02 08:09:28;;;;;;;22.20;10.48;;;18.10;50.80;;;;;;5111254;28;20024;-81
2021/03/02 08:12:16;;;;;;;19.80;10.38;;;18.20;50.60;;;;;;5085539;28;20122;-75
2021/03/02 08:14:41;;;;;;;15.00;9.98;;;18.20;50.70;;;;;;5095405;28;20095;-77
2021/03/02 08:17:07;;;;;;;16.83;10.18;;;18.30;50.50;;;;;;5110482;28;20424;-74
2021/03/02 08:19:39;;;;;;;18.00;9.23;;;18.40;50.30;;;;;;5109970;28;20032;-76
2021/03/02 08:22:17;;;;;;;16.60;10.45;;;18.40;50.10;;;;;;5110621;28;20035;-78
2021/03/02 08:24:51;;;;;;;18.60;9.98;;;18.50;50.00;;;;;;5110152;28;20088;-75
2021/03/02 08:27:42;;;;;;;18.52;11.05;;;18.50;49.90;;;;;;5109060;28;20085;-75
2021/03/02 08:30:10;;;;;;;18.88;10.00;;;18.60;50.00;;;;;;5111847;28;20057;-78
2021/03/02 08:32:37;;;;;;;16.95;10.32;;;18.70;50.00;;;;;;5113260;28;20031;-78
2021/03/02 08:35:05;;;;;;;19.90;10.70;;;18.70;49.90;;;;;;5112749;28;20035;-76
2021/03/02 08:37:47;;;;;;;24.17;10.63;;;18.70;49.80;;;;;;5132031;27;20081;-78
2021/03/02 08:40:15;;;;;;;21.98;11.30;;;18.80;49.90;;;;;;5114803;27;20491;-79
2021/03/02 08:43:11;;;;;;;19.90;10.93;;;18.90;49.90;;;;;;5113121;28;20027;-78
2021/03/02 08:45:45;;;;;;;20.30;10.20;;;18.90;49.70;;;;;;5098535;28;20039;-73
2021/03/02 08:48:23;;;;;;;24.33;9.27;;;19.00;49.60;;;;;;5113595;28;20080;-76
2021/03/02 08:50:54;;;;;;;23.38;11.77;;;19.00;49.50;;;;;;5113391;28;20152;-74
2021/03/02 08:53:55;;;;;;;30.25;14.75;;;18.90;49.20;;;;;;5113565;28;20024;-76
2021/03/02 08:56:26;;;;;;;30.17;15.25;;;18.80;48.90;;;;;;5108681;28;20126;-76
2021/03/02 08:59:16;;;;;;;34.00;18.50;;;18.70;48.90;;;;;;5113753;28;20020;-77
2021/03/02 09:01:42;;;;;;;33.40;15.95;;;18.60;49.00;;;;;;5113630;28;20028;-78
2021/03/02 09:04:19;;;;;;;30.45;14.32;;;18.60;49.30;;;;;;5113475;28;20092;-74
2021/03/02 09:06:45;;;;;;;26.58;13.70;;;18.70;49.30;;;;;;5113165;28;20019;-78
2021/03/02 09:09:19;;;;;;;27.83;13.13;;;18.80;49.10;;;;;;5113234;28;20032;-76
2021/03/02 09:11:53;;;;;;;26.30;12.70;;;18.90;49.10;;;;;;5112669;28;20032;-78
2021/03/02 09:14:22;;;;;;;23.60;10.50;;;19.00;49.00;;;;;;5112697;28;20457;-75
2021/03/02 09:16:52;;;;;;;20.10;10.30;;;19.10;49.00;;;;;;5112968;28;20016;-75
2021/03/02 09:19:24;;;;;;;24.20;10.50;;;19.10;48.80;;;;;;5112746;28;20027;-77
2021/03/02 09:21:51;;;;;;;23.73;9.95;;;19.10;48.80;;;;;;5092747;28;20149;-75
2021/03/02 09:24:23;;;;;;;18.25;9.50;;;19.20;48.70;;;;;;5092305;28;20032;-77
2021/03/02 09:27:10;;;;;;;21.33;9.90;;;19.20;48.60;;;;;;5091681;28;20024;-76
2021/03/02 09:29:44;;;;;;;13.07;8.35;;;19.30;48.70;;;;;;5099962;28;20483;-75
2021/03/02 09:32:12;;;;;;;17.80;7.72;;;19.30;48.60;;;;;;5112579;28;20030;-78
2021/03/02 09:34:43;;;;;;;22.15;9.50;;;19.30;48.60;;;;;;5113455;28;20379;-76
2021/03/02 09:37:13;;;;;;;16.58;9.23;;;19.40;49.20;;;;;;5113017;28;20027;-77
2021/03/02 09:39:41;;;;;;;14.77;8.10;;;19.40;48.80;;;;;;5112704;28;20020;-80
2021/03/02 09:42:21;;;;;;;14.23;8.02;;;19.50;48.80;;;;;;5111441;28;20019;-80
2021/03/02 09:44:52;;;;;;;11.80;7.40;;;19.50;48.90;;;;;;5111851;28;20043;-80
2021/03/02 09:47:35;;;;;;;15.52;8.23;;;19.60;48.90;;;;;;5111813;28;20024;-80
2021/03/02 09:50:02;;;;;;;13.73;7.53;;;19.70;49.00;;;;;;5112395;27;20024;-80
2021/03/02 09:52:48;;;;;;;12.65;7.75;;;19.80;48.90;;;;;;5116745;27;20829;-78
2021/03/02 09:55:25;;;;;;;11.32;7.72;;;19.80;49.10;;;;;;5112009;28;20105;-77
2021/03/02 09:58:16;;;;;;;14.48;7.68;;;19.80;49.20;;;;;;5112517;28;20130;-79
2021/03/02 10:00:44;;;;;;;21.73;7.55;;;19.80;49.00;;;;;;5112632;28;20016;-81
2021/03/02 10:03:17;;;;;;;11.48;7.18;;;19.90;49.20;;;;;;5112517;28;20034;-76
2021/03/02 10:05:52;;;;;;;16.75;8.55;;;19.90;49.30;;;;;;5112269;28;20027;-78
2021/03/02 10:08:27;;;;;;;17.00;7.50;;;20.00;49.90;;;;;;5111972;28;20418;-78
2021/03/02 10:10:57;;;;;;;14.20;7.05;;;20.20;50.00;;;;;;5111823;28;20118;-82
2021/03/02 10:13:34;;;;;;;13.57;7.53;;;20.30;49.70;;;;;;5111504;28;20562;-77
2021/03/02 10:16:09;;;;;;;20.52;7.70;;;20.40;49.00;;;;;;5110710;28;20115;-77
2021/03/02 10:18:35;;;;;;;;;;;20.60;50.30;;;;;;5112725;28;20028;-78
2021/03/02 10:21:05;;;;;;;11.85;6.72;;;20.50;49.20;;;;;;5111977;28;19903;-78
2021/03/02 10:23:31;;;;;;;12.15;6.50;;;20.50;49.20;;;;;;5111620;28;20035;-78
2021/03/02 10:25:58;;;;;;;9.50;6.25;;;20.50;49.40;;;;;;5111914;28;20015;-78
2021/03/02 10:28:32;;;;;;;10.85;7.00;;;20.50;49.40;;;;;;5111794;28;20024;-77
2021/03/02 10:30:58;;;;;;;16.05;7.28;;;20.50;49.40;;;;;;5112418;27;20072;-79
2021/03/02 10:33:24;;;;;;;26.30;8.18;;;20.50;49.20;;;;;;5111072;28;20110;-79
2021/03/02 10:35:50;;;;;;;24.35;8.98;;;20.60;50.20;;;;;;5111529;28;20977;-79
2021/03/02 10:38:15;;;;;;;21.30;8.27;;;20.60;50.30;;;;;;5111233;28;20035;-78
2021/03/02 10:40:41;;;;;;;18.92;8.00;;;20.70;50.50;;;;;;5110069;28;20110;-78
2021/03/02 10:43:07;;;;;;;19.23;7.15;;;20.70;50.70;;;;;;5110001;28;20028;-75
2021/03/02 10:45:32;;;;;;;23.05;8.27;;;20.80;51.20;;;;;;5111291;27;20043;-77
2021/03/02 10:47:58;;;;;;;16.27;7.07;;;20.90;51.70;;;;;;5115439;27;20410;-78
2021/03/02 10:50:24;;;;;;;15.60;7.57;;;20.90;51.50;;;;;;5111173;28;20032;-78
2021/03/02 10:52:49;;;;;;;14.52;7.43;;;20.90;51.00;;;;;;5109410;27;20552;-77
2021/03/02 10:55:15;;;;;;;17.15;7.85;;;21.00;51.00;;;;;;5128211;27;20029;-78
2021/03/02 10:57:40;;;;;;;16.17;8.27;;;21.10;50.70;;;;;;5113761;27;20068;-77
2021/03/02 11:00:07;;;;;;;16.83;7.57;;;21.20;50.80;;;;;;5109379;28;20176;-78
2021/03/02 11:02:32;;;;;;;18.33;7.35;;;21.20;50.70;;;;;;5128216;27;20041;-78
2021/03/02 11:04:58;;;;;;;14.00;7.15;;;21.30;50.50;;;;;;5111607;28;20045;-77
2021/03/02 11:07:24;;;;;;;15.95;8.00;;;21.30;50.50;;;;;;5110688;28;20422;-73
2021/03/02 11:09:50;;;;;;;16.45;7.68;;;21.30;50.80;;;;;;5111371;28;20024;-77
2021/03/02 11:12:15;;;;;;;17.85;7.60;;;21.40;50.30;;;;;;5110726;28;20064;-76
2021/03/02 11:14:41;;;;;;;17.50;8.18;;;21.50;50.90;;;;;;5110635;28;20031;-77
2021/03/02 11:17:07;;;;;;;18.85;7.53;;;21.60;49.80;;;;;;5111441;28;20043;-76
2021/03/02 11:19:32;;;;;;;19.00;7.05;;;21.70;49.70;;;;;;5110727;28;20027;-75
2021/03/02 11:21:58;;;;;;;12.52;7.07;;;21.80;50.10;;;;;;5109861;28;20031;-75
2021/03/02 11:24:24;;;;;;;15.63;7.13;;;21.80;49.60;;;;;;5110634;28;20443;-75
2021/03/02 11:26:50;;;;;;;16.38;7.60;;;21.90;50.20;;;;;;5109758;28;20023;-74
2021/03/02 11:29:16;;;;;;;16.02;7.20;;;21.90;49.70;;;;;;5110935;28;20490;-75
2021/03/02 11:31:42;;;;;;;24.20;8.23;;;22.00;49.80;;;;;;5110934;28;20038;-75
2021/03/02 11:34:07;;;;;;;16.92;7.90;;;22.10;49.80;;;;;;5111232;28;20024;-75
2021/03/02 11:36:33;;;;;;;14.95;7.30;;;22.20;49.30;;;;;;5109198;28;20372;-75
2021/03/02 11:38:59;;;;;;;19.20;7.28;;;22.30;49.10;;;;;;5111016;28;20058;-75
2021/03/02 11:41:24;;;;;;;19.35;9.20;;;22.40;49.20;;;;;;5110779;28;20026;-76
2021/03/02 11:43:50;;;;;;;19.83;8.70;;;22.40;48.30;;;;;;5110813;28;20027;-75
2021/03/02 11:46:16;;;;;;;16.17;7.63;;;22.60;48.30;;;;;;5109175;28;20095;-75
2021/03/02 11:48:41;;;;;;;16.98;7.40;;;22.60;48.70;;;;;;5110231;28;20507;-75
2021/03/02 11:51:07;;;;;;;17.08;7.40;;;22.70;48.70;;;;;;5110059;28;20035;-75
2021/03/02 11:53:33;;;;;;;15.68;8.35;;;22.90;48.50;;;;;;5110507;28;20031;-75
2021/03/02 11:55:58;;;;;;;13.93;7.32;;;23.30;48.30;;;;;;5110116;28;20076;-76
2021/03/02 11:58:24;;;;;;;16.33;7.65;;;24.10;47.40;;;;;;5108696;28;20032;-77
2021/03/02 12:00:50;;;;;;;17.00;7.47;;;25.30;45.70;;;;;;5098112;28;20031;-77
2021/03/02 12:03:15;;;;;;;15.43;7.65;;;26.50;43.90;;;;;;5108549;28;20032;-73
2021/03/02 12:05:41;;;;;;;14.55;7.72;;;27.50;41.60;;;;;;5112142;28;20525;-75
2021/03/02 12:08:06;;;;;;;15.82;7.45;;;28.30;40.00;;;;;;5114652;28;20075;-74
2021/03/02 12:10:32;;;;;;;11.52;6.93;;;28.90;39.00;;;;;;5114704;28;20032;-75
2021/03/02 12:12:58;;;;;;;19.45;8.70;;;29.40;37.80;;;;;;5114576;28;20016;-75
2021/03/02 12:15:23;;;;;;;14.63;7.47;;;29.80;36.80;;;;;;5113956;28;20052;-75
2021/03/02 12:17:49;;;;;;;18.70;9.25;;;30.00;36.20;;;;;;5114473;28;20484;-77
2021/03/02 12:20:15;;;;;;;19.25;8.43;;;30.20;35.90;;;;;;5114138;28;20024;-76
2021/03/02 12:22:40;;;;;;;15.00;8.32;;;30.50;35.70;;;;;;5114553;28;20365;-75
2021/03/02 12:25:07;;;;;;;12.35;7.85;;;30.70;35.00;;;;;;5114787;28;20032;-76
2021/03/02 12:27:33;;;;;;;13.80;7.88;;;31.20;34.60;;;;;;5106778;28;20432;-76
2021/03/02 12:29:59;;;;;;;16.52;7.22;;;31.20;34.10;;;;;;5093878;28;20074;-78
2021/03/02 12:32:25;;;;;;;17.15;7.57;;;31.50;33.90;;;;;;5098246;28;20016;-79
2021/03/02 12:34:51;;;;;;;14.68;7.18;;;31.50;33.30;;;;;;5103579;28;20157;-77
2021/03/02 12:37:16;;;;;;;12.50;7.75;;;31.70;33.70;;;;;;5102033;28;20016;-77
2021/03/02 12:39:42;;;;;;;16.58;8.05;;;31.80;32.50;;;;;;5103517;28;20026;-74